Time;durP1;ratioP1;P1;durP2;ratioP2;P2;SDS_P1;SDS_P2;PMS_P1;PMS_P2;Temp;Humidity;BMP_temperature;BMP_pressure;BME280_temperature;BME280_humidity;BME280_pressure;Samples;Min_cycle;Max_cycle;Signal;HPM_P1;HPM_P2
2021/11/16 00:00:50;;;;;;;110.13;52.28;;;2.70;99.90;;;;;;2102278;28;20036;-71
2021/11/16 00:01:51;;;;;;;113.78;52.55;;;2.70;99.90;;;;;;2105493;28;20032;-71
2021/11/16 00:02:52;;;;;;;110.60;51.10;;;2.70;99.90;;;;;;2103945;28;20723;-71
2021/11/16 00:03:55;;;;;;;108.72;50.78;;;2.80;99.90;;;;;;2106081;28;20060;-71
2021/11/16 00:04:55;;;;;;;112.35;51.35;;;2.70;99.90;;;;;;2103117;28;20535;-71
2021/11/16 00:05:56;;;;;;;118.07;51.33;;;2.70;99.90;;;;;;2106164;28;20058;-71
2021/11/16 00:06:57;;;;;;;109.47;52.10;;;2.70;99.90;;;;;;2103586;28;20063;-71
2021/11/16 00:07:58;;;;;;;117.30;52.45;;;2.70;99.90;;;;;;2106000;28;20036;-71
2021/11/16 00:09:02;;;;;;;109.05;51.72;;;2.70;99.90;;;;;;2099494;28;20128;-72
2021/11/16 00:10:06;;;;;;;110.65;52.55;;;2.70;99.90;;;;;;2100155;28;20092;-72
2021/11/16 00:11:06;;;;;;;109.20;50.65;;;2.70;99.90;;;;;;2106234;28;20074;-71
2021/11/16 00:12:07;;;;;;;109.63;50.15;;;2.70;99.90;;;;;;2102219;28;20464;-72
2021/11/16 00:13:11;;;;;;;109.10;50.40;;;2.60;99.90;;;;;;2106026;28;20031;-73
2021/11/16 00:14:13;;;;;;;109.97;50.53;;;2.60;99.90;;;;;;2101100;28;20026;-72
2021/11/16 00:15:14;;;;;;;110.65;51.58;;;2.60;99.90;;;;;;2106100;28;20024;-72
2021/11/16 00:16:14;;;;;;;111.90;51.67;;;2.60;99.90;;;;;;2101232;28;20021;-69
2021/11/16 00:17:15;;;;;;;113.30;52.15;;;2.60;99.90;;;;;;2106355;28;20419;-71
2021/11/16 00:18:19;;;;;;;117.53;53.72;;;2.60;99.90;;;;;;2102128;28;20020;-71
2021/11/16 00:19:20;;;;;;;117.68;53.25;;;2.60;99.90;;;;;;2098425;28;20027;-71
2021/11/16 00:20:21;;;;;;;115.70;51.72;;;2.60;99.90;;;;;;2106599;28;20028;-72
2021/11/16 00:21:25;;;;;;;118.43;52.63;;;2.60;99.90;;;;;;2104304;28;20026;-73
2021/11/16 00:22:26;;;;;;;108.15;50.33;;;2.60;99.90;;;;;;2103878;28;20035;-70
2021/11/16 00:23:34;;;;;;;108.25;50.55;;;2.60;99.90;;;;;;2095379;28;20119;-69
2021/11/16 00:24:38;;;;;;;112.43;51.08;;;2.50;99.90;;;;;;2097442;28;20040;-69
2021/11/16 00:25:39;;;;;;;113.45;52.15;;;2.50;99.90;;;;;;2101993;28;20027;-71
2021/11/16 00:26:44;;;;;;;108.68;51.13;;;2.60;99.90;;;;;;2106100;28;20026;-68
2021/11/16 00:27:45;;;;;;;109.78;50.58;;;2.50;99.90;;;;;;2097970;28;20028;-71
2021/11/16 00:28:46;;;;;;;104.13;49.58;;;2.50;99.90;;;;;;2106018;28;20496;-73
2021/11/16 00:29:46;;;;;;;109.55;50.13;;;2.50;99.90;;;;;;2101303;28;20143;-73
2021/11/16 00:30:47;;;;;;;109.20;50.10;;;2.40;99.90;;;;;;2106271;28;20028;-71
2021/11/16 00:31:47;;;;;;;113.82;49.88;;;2.40;99.90;;;;;;2101544;28;20027;-72
2021/11/16 00:32:48;;;;;;;109.90;50.58;;;2.40;99.90;;;;;;2106639;28;20050;-72
2021/11/16 00:33:49;;;;;;;113.10;51.58;;;2.40;99.90;;;;;;2102051;28;20025;-72
2021/11/16 00:34:50;;;;;;;119.90;53.50;;;2.40;99.90;;;;;;2106197;28;20027;-72
2021/11/16 00:35:51;;;;;;;119.28;52.45;;;2.40;99.90;;;;;;2100864;28;20028;-72
2021/11/16 00:36:52;;;;;;;116.85;52.17;;;2.40;99.90;;;;;;2107466;28;20013;-74
2021/11/16 00:37:53;;;;;;;115.85;52.15;;;2.40;99.90;;;;;;2102166;28;20036;-72
2021/11/16 00:38:54;;;;;;;115.13;50.97;;;2.40;99.90;;;;;;2106064;28;20016;-71
2021/11/16 00:39:58;;;;;;;110.78;50.80;;;2.40;99.90;;;;;;2101217;28;20103;-72
2021/11/16 00:41:02;;;;;;;111.60;50.58;;;2.40;99.90;;;;;;2106426;28;20453;-71
2021/11/16 00:42:02;;;;;;;113.43;52.85;;;2.40;99.90;;;;;;2101712;28;20029;-72
2021/11/16 00:43:07;;;;;;;112.50;51.63;;;2.40;99.90;;;;;;2105833;28;20035;-70
2021/11/16 00:44:07;;;;;;;112.82;51.50;;;2.40;99.90;;;;;;2101512;28;20055;-72
2021/11/16 00:45:10;;;;;;;112.35;51.00;;;2.40;99.90;;;;;;2106797;28;20032;-73
2021/11/16 00:46:11;;;;;;;112.18;50.90;;;2.40;99.90;;;;;;2100923;28;20850;-72
2021/11/16 00:47:14;;;;;;;109.15;50.58;;;2.40;99.90;;;;;;2106427;28;20108;-72
2021/11/16 00:48:17;;;;;;;113.75;51.92;;;2.30;99.90;;;;;;2102384;28;20059;-71
2021/11/16 00:49:18;;;;;;;119.90;53.13;;;2.30;99.90;;;;;;2104754;28;20039;-69
2021/11/16 00:50:20;;;;;;;116.15;51.55;;;2.40;99.90;;;;;;2102436;28;20024;-72
2021/11/16 00:51:22;;;;;;;120.68;53.58;;;2.40;99.90;;;;;;2104480;28;20016;-71
2021/11/16 00:52:23;;;;;;;120.47;53.50;;;2.40;99.90;;;;;;2103450;28;20035;-71
2021/11/16 00:53:28;;;;;;;116.63;52.28;;;2.40;99.90;;;;;;2104542;28;20020;-70
2021/11/16 00:54:29;;;;;;;119.65;53.30;;;2.40;99.90;;;;;;2103913;28;20028;-70
2021/11/16 00:55:30;;;;;;;114.30;51.35;;;2.40;99.90;;;;;;2103054;28;20503;-70
2021/11/16 00:56:30;;;;;;;117.63;52.67;;;2.40;99.90;;;;;;2104097;28;20055;-70
2021/11/16 00:57:31;;;;;;;118.20;51.97;;;2.40;99.90;;;;;;2103572;28;21066;-71
2021/11/16 00:58:32;;;;;;;111.57;50.33;;;2.40;99.90;;;;;;2104427;28;20156;-71
2021/11/16 00:59:33;;;;;;;114.97;52.53;;;2.40;99.90;;;;;;2103071;28;20027;-71
2021/11/16 01:00:34;;;;;;;119.43;53.72;;;2.40;99.90;;;;;;2104938;28;20460;-71
2021/11/16 01:01:34;;;;;;;115.90;52.00;;;2.40;99.90;;;;;;2102714;28;20380;-71
2021/11/16 01:02:35;;;;;;;110.65;50.53;;;2.30;99.90;;;;;;2104858;28;20077;-71
2021/11/16 01:03:36;;;;;;;118.03;51.50;;;2.40;99.90;;;;;;2102780;28;20097;-70
2021/11/16 01:04:36;;;;;;;112.40;51.85;;;2.40;99.90;;;;;;2104990;28;20099;-70
2021/11/16 01:05:39;;;;;;;110.18;49.42;;;2.30;99.90;;;;;;2102313;28;20028;-70
2021/11/16 01:06:39;;;;;;;110.10;50.55;;;2.30;99.90;;;;;;2105602;28;20027;-70
2021/11/16 01:07:41;;;;;;;109.07;49.70;;;2.30;99.90;;;;;;2102132;28;20039;-71
2021/11/16 01:08:42;;;;;;;113.88;50.95;;;2.30;99.90;;;;;;2106482;28;20044;-71
2021/11/16 01:09:45;;;;;;;109.22;50.58;;;2.30;99.90;;;;;;2102003;28;20024;-71
2021/11/16 01:10:45;;;;;;;135.68;57.05;;;2.30;99.90;;;;;;2105504;28;20027;-73
2021/11/16 01:11:47;;;;;;;124.97;54.97;;;2.30;99.90;;;;;;2104923;28;20383;-71
2021/11/16 01:12:48;;;;;;;118.43;52.38;;;2.30;99.90;;;;;;2105982;28;20048;-71
2021/11/16 01:13:48;;;;;;;116.68;52.65;;;2.30;99.90;;;;;;2100645;28;20032;-71
2021/11/16 01:14:49;;;;;;;112.72;51.00;;;2.30;99.90;;;;;;2105150;28;20055;-71
2021/11/16 01:15:51;;;;;;;116.57;53.08;;;2.30;99.90;;;;;;2100878;28;20020;-71
2021/11/16 01:16:51;;;;;;;121.20;54.08;;;2.20;99.90;;;;;;2105240;28;20507;-71
2021/11/16 01:17:52;;;;;;;121.00;53.92;;;2.20;99.90;;;;;;2099709;28;20079;-70
2021/11/16 01:18:53;;;;;;;125.88;54.55;;;2.20;99.90;;;;;;2100397;28;20028;-72
2021/11/16 01:19:54;;;;;;;118.07;54.45;;;2.20;99.90;;;;;;2108405;28;20103;-72
2021/11/16 01:20:56;;;;;;;123.25;55.25;;;2.20;99.90;;;;;;2106198;28;20024;-71
2021/11/16 01:21:56;;;;;;;120.43;53.92;;;2.20;99.90;;;;;;2105600;28;20040;-69
2021/11/16 01:22:59;;;;;;;116.88;54.72;;;2.20;99.90;;;;;;2107093;28;20036;-71
2021/11/16 01:24:00;;;;;;;115.90;52.65;;;2.20;99.90;;;;;;2097933;28;20063;-73
2021/11/16 01:25:02;;;;;;;117.18;52.90;;;2.20;99.90;;;;;;2097510;28;20475;-69
2021/11/16 01:26:02;;;;;;;123.25;55.70;;;2.10;99.90;;;;;;2105406;28;20036;-73
2021/11/16 01:27:04;;;;;;;128.20;55.40;;;2.20;99.90;;;;;;2106469;28;20031;-71
2021/11/16 01:28:13;;;;;;;132.80;56.20;;;2.10;99.90;;;;;;2106705;28;20119;-71
2021/11/16 01:29:15;;;;;;;122.25;54.22;;;2.10;99.90;;;;;;2106488;28;20107;-72
2021/11/16 01:30:20;;;;;;;123.38;54.50;;;2.20;99.90;;;;;;2106212;28;20043;-72
2021/11/16 01:31:21;;;;;;;123.20;53.50;;;2.20;99.90;;;;;;2105951;28;20643;-72
2021/11/16 01:32:36;;;;;;;119.28;52.58;;;2.20;99.90;;;;;;2106516;28;20051;-72
2021/11/16 01:33:41;;;;;;;115.47;51.10;;;2.20;99.90;;;;;;2106057;28;20043;-71
2021/11/16 01:34:46;;;;;;;124.32;52.78;;;2.10;99.90;;;;;;2106016;28;20031;-72
2021/11/16 01:35:50;;;;;;;116.80;52.63;;;2.10;99.90;;;;;;2105624;28;20024;-71
2021/11/16 01:36:50;;;;;;;122.93;53.95;;;2.10;99.90;;;;;;2105962;28;20031;-73
2021/11/16 01:37:51;;;;;;;123.85;55.00;;;2.10;99.90;;;;;;2105854;28;20659;-71
2021/11/16 01:38:55;;;;;;;122.53;53.72;;;2.10;99.90;;;;;;2105047;28;20555;-71
2021/11/16 01:39:56;;;;;;;125.63;53.67;;;2.10;99.90;;;;;;2105273;28;20075;-72
2021/11/16 01:40:57;;;;;;;127.22;54.63;;;2.10;99.90;;;;;;2106655;28;20035;-69
2021/11/16 01:41:59;;;;;;;118.47;52.55;;;2.10;99.90;;;;;;2106675;28;20055;-69
2021/11/16 01:43:03;;;;;;;123.07;53.22;;;2.10;99.90;;;;;;2106515;28;20024;-68
2021/11/16 01:44:04;;;;;;;114.68;52.67;;;2.10;99.90;;;;;;2106622;28;20101;-70
2021/11/16 01:45:06;;;;;;;118.10;53.00;;;2.00;99.90;;;;;;2106844;28;20086;-70
2021/11/16 01:46:11;;;;;;;116.82;51.95;;;2.10;99.90;;;;;;2106499;28;20024;-70
2021/11/16 01:47:12;;;;;;;120.15;52.78;;;2.00;99.90;;;;;;2107365;28;20032;-71
2021/11/16 01:48:14;;;;;;;116.57;51.72;;;2.00;99.90;;;;;;2106524;28;20039;-70
2021/11/16 01:49:15;;;;;;;116.75;52.60;;;2.00;99.90;;;;;;2106525;28;20031;-70
2021/11/16 01:50:18;;;;;;;117.90;52.30;;;2.00;99.90;;;;;;2106534;28;20017;-71
2021/11/16 01:51:21;;;;;;;117.50;52.10;;;2.00;99.90;;;;;;2106670;28;20387;-71
2021/11/16 01:52:22;;;;;;;117.50;52.60;;;2.00;99.90;;;;;;2107065;28;20107;-71
2021/11/16 01:53:23;;;;;;;114.28;51.75;;;2.00;99.90;;;;;;2106944;28;20391;-70
2021/11/16 01:54:24;;;;;;;121.05;52.22;;;1.90;99.90;;;;;;2106998;28;20036;-71
2021/11/16 01:55:25;;;;;;;119.15;51.55;;;1.90;99.90;;;;;;2106498;28;20433;-69
2021/11/16 01:56:26;;;;;;;113.75;52.35;;;1.90;99.90;;;;;;2105838;28;20824;-70
2021/11/16 01:57:27;;;;;;;113.65;52.10;;;1.90;99.90;;;;;;2105701;28;20040;-71
2021/11/16 01:58:27;;;;;;;115.43;50.90;;;1.90;99.90;;;;;;2105713;28;20445;-71
2021/11/16 01:59:28;;;;;;;110.20;49.60;;;1.80;99.90;;;;;;2105772;28;20035;-71
2021/11/16 02:00:35;;;;;;;112.93;51.20;;;1.80;99.90;;;;;;2105643;28;20475;-70
2021/11/16 02:01:38;;;;;;;115.95;50.75;;;1.80;99.90;;;;;;2105326;28;20031;-71
2021/11/16 02:02:39;;;;;;;109.47;49.40;;;1.80;99.90;;;;;;2105730;28;20027;-70
2021/11/16 02:03:40;;;;;;;108.32;48.95;;;1.90;99.90;;;;;;2105589;28;20019;-71
2021/11/16 02:04:41;;;;;;;112.65;50.28;;;1.80;99.90;;;;;;2104934;28;20111;-71
2021/11/16 02:05:45;;;;;;;115.68;50.95;;;1.90;99.90;;;;;;2104752;28;20020;-71
2021/11/16 02:06:46;;;;;;;118.93;51.95;;;1.80;99.90;;;;;;2105138;28;20032;-71
2021/11/16 02:07:48;;;;;;;120.13;52.53;;;1.80;99.90;;;;;;2105053;28;20032;-71
2021/11/16 02:08:50;;;;;;;119.05;52.72;;;1.80;99.90;;;;;;2106000;28;20040;-71
2021/11/16 02:09:51;;;;;;;113.93;50.80;;;1.80;99.90;;;;;;2105547;28;20030;-71
2021/11/16 02:10:54;;;;;;;116.78;51.08;;;1.80;99.90;;;;;;2105014;28;20031;-71
2021/11/16 02:11:55;;;;;;;109.53;50.00;;;1.80;99.90;;;;;;2105608;28;20048;-71
2021/11/16 02:12:56;;;;;;;113.60;50.50;;;1.80;99.90;;;;;;2105498;28;20395;-71
2021/11/16 02:13:56;;;;;;;115.68;49.97;;;1.90;99.90;;;;;;2105969;28;20057;-72
2021/11/16 02:14:58;;;;;;;112.97;49.90;;;1.80;99.90;;;;;;2106050;28;20042;-71
2021/11/16 02:15:59;;;;;;;112.90;49.60;;;1.90;99.90;;;;;;2105344;28;20278;-71
2021/11/16 02:16:59;;;;;;;116.68;51.88;;;1.90;99.90;;;;;;2106994;28;20051;-71
2021/11/16 02:18:00;;;;;;;109.85;48.83;;;1.80;99.90;;;;;;2107101;28;20032;-72
2021/11/16 02:19:01;;;;;;;110.93;50.35;;;1.80;99.90;;;;;;2107129;28;20034;-72
2021/11/16 02:20:02;;;;;;;108.85;48.60;;;1.80;99.90;;;;;;2107028;28;20047;-71
2021/11/16 02:21:04;;;;;;;112.95;49.63;;;1.90;99.90;;;;;;2106829;28;20032;-70
2021/11/16 02:22:05;;;;;;;111.28;50.85;;;1.80;99.90;;;;;;2107389;28;20032;-71
2021/11/16 02:23:07;;;;;;;119.13;52.38;;;1.90;99.90;;;;;;2107110;28;20032;-71
2021/11/16 02:24:09;;;;;;;114.13;51.33;;;1.90;99.90;;;;;;2107008;28;20035;-72
2021/11/16 02:25:10;;;;;;;119.65;52.65;;;1.80;99.90;;;;;;2105587;28;20380;-71
2021/11/16 02:26:14;;;;;;;120.00;53.20;;;1.90;99.90;;;;;;2097382;28;20070;-71
2021/11/16 02:27:15;;;;;;;119.53;52.25;;;1.90;99.90;;;;;;2105169;28;20056;-71
2021/11/16 02:28:18;;;;;;;116.13;51.85;;;1.90;99.90;;;;;;2105409;28;20476;-71
2021/11/16 02:29:19;;;;;;;110.13;49.47;;;1.90;99.90;;;;;;2105547;28;20123;-71
2021/11/16 02:30:23;;;;;;;110.15;49.03;;;1.80;99.90;;;;;;2105623;28;20036;-71
2021/11/16 02:31:24;;;;;;;116.20;52.47;;;1.80;99.90;;;;;;2105176;28;20498;-70
2021/11/16 02:32:25;;;;;;;110.82;50.20;;;1.80;99.90;;;;;;2105401;28;20136;-70
2021/11/16 02:33:26;;;;;;;110.68;49.42;;;1.80;99.90;;;;;;2104839;28;20038;-70
2021/11/16 02:34:26;;;;;;;107.28;49.22;;;1.80;99.90;;;;;;2104946;28;20035;-70
2021/11/16 02:35:27;;;;;;;113.95;51.78;;;1.80;99.90;;;;;;2105393;28;20028;-71
2021/11/16 02:36:31;;;;;;;112.25;51.85;;;1.80;99.90;;;;;;2105208;28;20040;-71
2021/11/16 02:37:32;;;;;;;116.53;50.70;;;1.80;99.90;;;;;;2106102;28;20035;-71
2021/11/16 02:38:35;;;;;;;113.35;51.20;;;1.80;99.90;;;;;;2105482;28;20031;-70
2021/11/16 02:39:36;;;;;;;115.68;51.33;;;1.80;99.90;;;;;;2104992;28;20519;-70
2021/11/16 02:40:37;;;;;;;111.82;50.53;;;1.80;99.90;;;;;;2104848;28;20115;-71
2021/11/16 02:41:40;;;;;;;117.07;51.63;;;1.70;99.90;;;;;;2104186;28;20093;-71
2021/11/16 02:42:41;;;;;;;113.28;49.95;;;1.70;99.90;;;;;;2104830;28;20021;-71
2021/11/16 02:43:44;;;;;;;111.70;50.53;;;1.70;99.90;;;;;;2105485;28;20051;-72
2021/11/16 02:44:46;;;;;;;112.22;51.03;;;1.70;99.90;;;;;;2105409;28;20028;-71
2021/11/16 02:45:47;;;;;;;113.57;50.47;;;1.70;99.90;;;;;;2104246;28;20027;-71
2021/11/16 02:46:51;;;;;;;116.38;51.03;;;1.70;99.90;;;;;;2105788;28;20028;-71
2021/11/16 02:47:52;;;;;;;116.45;52.03;;;1.70;99.90;;;;;;2105906;28;20102;-72
2021/11/16 02:48:52;;;;;;;107.28;49.33;;;1.60;99.90;;;;;;2104860;28;20036;-71
2021/11/16 02:49:54;;;;;;;117.65;52.15;;;1.60;99.90;;;;;;2105309;28;20031;-71
2021/11/16 02:50:58;;;;;;;119.45;53.30;;;1.60;99.90;;;;;;2105450;28;20123;-71
2021/11/16 02:51:59;;;;;;;115.22;51.17;;;1.60;99.90;;;;;;2105349;28;20032;-71
2021/11/16 02:52:59;;;;;;;113.38;49.75;;;1.60;99.90;;;;;;2105457;28;20024;-71
2021/11/16 02:54:01;;;;;;;110.97;50.70;;;1.60;99.90;;;;;;2105409;28;20024;-71
2021/11/16 02:55:04;;;;;;;110.15;50.50;;;1.60;99.90;;;;;;2105565;28;20024;-71
2021/11/16 02:56:06;;;;;;;111.10;50.53;;;1.60;99.90;;;;;;2104955;28;20020;-71
2021/11/16 02:57:10;;;;;;;110.63;50.72;;;1.60;99.90;;;;;;2105786;28;20035;-71
2021/11/16 02:58:12;;;;;;;125.45;54.20;;;1.60;99.90;;;;;;2105557;28;20028;-72
2021/11/16 02:59:13;;;;;;;129.05;55.63;;;1.60;99.90;;;;;;2105672;28;20039;-71
2021/11/16 03:00:16;;;;;;;117.80;52.67;;;1.60;99.90;;;;;;2105822;28;20407;-71
2021/11/16 03:01:19;;;;;;;123.80;53.10;;;1.60;99.90;;;;;;2105741;28;20039;-72
2021/11/16 03:02:20;;;;;;;124.50;52.92;;;1.60;99.90;;;;;;2106180;28;20113;-72
2021/11/16 03:03:21;;;;;;;124.72;53.38;;;1.60;99.90;;;;;;2106106;28;20055;-71
2021/11/16 03:04:22;;;;;;;131.05;56.20;;;1.70;99.90;;;;;;2106304;28;20115;-71
2021/11/16 03:05:23;;;;;;;121.97;54.83;;;1.60;99.90;;;;;;2107227;28;20031;-71
2021/11/16 03:06:24;;;;;;;118.05;54.83;;;1.70;99.90;;;;;;2105982;28;20065;-73
2021/11/16 03:07:34;;;;;;;118.88;54.55;;;1.70;99.90;;;;;;2105415;28;20028;-71
2021/11/16 03:08:35;;;;;;;122.93;55.58;;;1.70;99.90;;;;;;2105504;28;20035;-71
2021/11/16 03:09:48;;;;;;;120.65;55.67;;;1.70;99.90;;;;;;2104891;28;20276;-74
2021/11/16 03:10:51;;;;;;;118.68;55.53;;;1.70;99.90;;;;;;2104776;28;20095;-72
2021/11/16 03:11:52;;;;;;;118.88;54.40;;;1.70;99.90;;;;;;2105281;28;20035;-72
2021/11/16 03:12:53;;;;;;;118.63;54.83;;;1.70;99.90;;;;;;2105250;28;20020;-72
2021/11/16 03:13:54;;;;;;;121.85;55.08;;;1.70;99.90;;;;;;2105432;28;20050;-71
2021/11/16 03:14:55;;;;;;;112.35;53.58;;;1.70;99.90;;;;;;2105328;28;20031;-72
2021/11/16 03:15:56;;;;;;;118.45;54.28;;;1.80;99.90;;;;;;2104833;28;20028;-70
2021/11/16 03:16:57;;;;;;;117.45;53.20;;;1.80;99.90;;;;;;2104943;28;20391;-72
2021/11/16 03:17:59;;;;;;;113.30;53.65;;;1.90;99.90;;;;;;2104812;28;20032;-73
2021/11/16 03:19:00;;;;;;;116.20;53.00;;;1.80;99.90;;;;;;2105269;28;20556;-72
2021/11/16 03:20:08;;;;;;;113.90;54.00;;;1.90;99.90;;;;;;2105493;28;20077;-73
2021/11/16 03:21:12;;;;;;;119.90;53.50;;;1.90;99.90;;;;;;2105232;28;20039;-71
2021/11/16 03:22:14;;;;;;;120.38;54.28;;;1.90;99.90;;;;;;2105231;28;20755;-70
2021/11/16 03:23:18;;;;;;;111.03;52.92;;;2.00;99.90;;;;;;2105345;28;20024;-73
2021/11/16 03:24:19;;;;;;;113.63;52.90;;;2.00;99.90;;;;;;2104669;28;20036;-70
2021/11/16 03:25:23;;;;;;;117.50;53.80;;;2.00;99.90;;;;;;2104963;28;20063;-72
2021/11/16 03:26:27;;;;;;;111.70;51.05;;;2.00;99.90;;;;;;2105662;28;20028;-72
2021/11/16 03:27:35;;;;;;;113.55;51.70;;;2.10;99.90;;;;;;2106983;28;20039;-72
2021/11/16 03:28:38;;;;;;;112.82;51.97;;;2.10;99.90;;;;;;2106318;28;20039;-71
2021/11/16 03:29:49;;;;;;;114.63;53.13;;;2.20;99.90;;;;;;2105615;28;20040;-70
2021/11/16 03:30:52;;;;;;;108.13;51.38;;;2.20;99.90;;;;;;2105298;28;20036;-72
2021/11/16 03:32:05;;;;;;;111.22;52.50;;;2.20;99.90;;;;;;2105231;28;20068;-73
2021/11/16 03:33:07;;;;;;;115.85;52.00;;;2.20;99.90;;;;;;2105469;28;20035;-72
2021/11/16 03:34:07;;;;;;;110.32;52.65;;;2.30;99.90;;;;;;2105362;28;20024;-73
2021/11/16 03:35:08;;;;;;;104.07;49.63;;;2.30;99.90;;;;;;2105412;28;20550;-73
2021/11/16 03:36:09;;;;;;;106.70;50.20;;;2.30;99.90;;;;;;2104896;28;20020;-72
2021/11/16 03:37:10;;;;;;;105.47;50.20;;;2.30;99.90;;;;;;2105197;28;20043;-72
2021/11/16 03:38:12;;;;;;;102.97;48.97;;;2.40;99.90;;;;;;2105209;28;20084;-71
2021/11/16 03:39:13;;;;;;;101.07;48.55;;;2.40;99.90;;;;;;2105025;28;20028;-72
2021/11/16 03:40:16;;;;;;;101.57;49.45;;;2.40;99.90;;;;;;2096366;28;20123;-72
2021/11/16 03:41:17;;;;;;;101.00;48.42;;;2.40;99.90;;;;;;2096590;28;20044;-71
2021/11/16 03:42:18;;;;;;;98.65;48.83;;;2.40;99.90;;;;;;2105597;28;20028;-73
2021/11/16 03:43:20;;;;;;;102.82;49.30;;;2.50;99.90;;;;;;2105369;28;20556;-72
2021/11/16 03:44:21;;;;;;;99.28;47.40;;;2.50;99.90;;;;;;2104988;28;20035;-72
2021/11/16 03:45:24;;;;;;;96.25;47.83;;;2.50;99.90;;;;;;2098711;28;20372;-73
2021/11/16 03:46:28;;;;;;;102.90;48.80;;;2.50;99.90;;;;;;2106080;28;20115;-73
2021/11/16 03:47:29;;;;;;;101.47;48.45;;;2.60;99.90;;;;;;2105141;28;20112;-74
2021/11/16 03:48:29;;;;;;;96.32;47.33;;;2.60;99.90;;;;;;2105407;28;20983;-74
2021/11/16 03:49:31;;;;;;;98.57;48.08;;;2.60;99.90;;;;;;2107336;28;20494;-72
2021/11/16 03:50:32;;;;;;;99.85;47.95;;;2.60;99.90;;;;;;2105296;28;20032;-72
2021/11/16 03:51:32;;;;;;;99.20;47.70;;;2.60;99.90;;;;;;2105074;28;20020;-72
2021/11/16 03:52:38;;;;;;;104.00;50.08;;;2.70;99.90;;;;;;2105205;28;20132;-73
2021/11/16 03:53:39;;;;;;;101.05;49.20;;;2.70;99.90;;;;;;2104604;28;20024;-72
2021/11/16 03:54:39;;;;;;;99.93;48.08;;;2.70;99.90;;;;;;2106499;28;20133;-73
2021/11/16 03:55:43;;;;;;;95.07;47.58;;;2.70;99.90;;;;;;2106223;28;20085;-71
2021/11/16 03:56:43;;;;;;;98.72;47.25;;;2.80;99.90;;;;;;2105750;28;20028;-72
2021/11/16 03:57:45;;;;;;;99.25;48.05;;;2.80;99.90;;;;;;2106172;28;20101;-73
2021/11/16 03:58:46;;;;;;;100.28;49.58;;;2.90;99.90;;;;;;2106508;28;20544;-73
2021/11/16 03:59:47;;;;;;;101.20;48.95;;;2.90;99.90;;;;;;2106572;28;20052;-73
2021/11/16 04:00:52;;;;;;;104.28;49.65;;;2.90;99.90;;;;;;2103553;28;20085;-69
2021/11/16 04:01:53;;;;;;;93.47;46.55;;;2.90;99.90;;;;;;2104587;28;20768;-73
2021/11/16 04:02:54;;;;;;;97.07;47.17;;;3.00;99.90;;;;;;2106466;28;20081;-73
2021/11/16 04:03:55;;;;;;;97.43;46.60;;;3.00;99.90;;;;;;2106383;28;20024;-73
2021/11/16 04:04:56;;;;;;;99.22;47.78;;;3.00;99.90;;;;;;2106353;28;20680;-72
2021/11/16 04:05:57;;;;;;;95.03;47.33;;;3.10;99.90;;;;;;2105920;28;20036;-73
2021/11/16 04:06:58;;;;;;;96.88;46.42;;;3.10;99.90;;;;;;2105774;28;20036;-71
2021/11/16 04:07:59;;;;;;;93.28;45.47;;;3.10;99.90;;;;;;2106770;28;20419;-70
2021/11/16 04:09:00;;;;;;;96.13;46.80;;;3.10;99.90;;;;;;2107024;28;20043;-69
2021/11/16 04:10:02;;;;;;;95.80;45.97;;;3.20;99.90;;;;;;2107257;28;20046;-70
2021/11/16 04:11:04;;;;;;;98.18;46.25;;;3.20;99.90;;;;;;2107121;28;20022;-70
2021/11/16 04:12:05;;;;;;;91.63;45.83;;;3.20;99.90;;;;;;2107123;28;20460;-70
2021/11/16 04:13:06;;;;;;;94.82;46.65;;;3.20;99.90;;;;;;2107608;28;20020;-70
2021/11/16 04:14:07;;;;;;;93.75;45.45;;;3.20;99.90;;;;;;2107999;28;20035;-72
2021/11/16 04:15:08;;;;;;;96.90;47.63;;;3.20;99.90;;;;;;2108516;28;20540;-69
2021/11/16 04:16:09;;;;;;;94.03;46.10;;;3.20;99.90;;;;;;2107345;28;20071;-70
2021/11/16 04:17:10;;;;;;;89.50;45.70;;;3.30;99.90;;;;;;2107410;28;20023;-70
2021/11/16 04:18:10;;;;;;;98.55;48.85;;;3.30;99.90;;;;;;2106890;28;20114;-73
2021/11/16 04:19:12;;;;;;;102.28;49.63;;;3.20;99.90;;;;;;2106440;28;20023;-70
2021/11/16 04:20:16;;;;;;;90.03;47.40;;;3.20;99.90;;;;;;2106640;28;20389;-70
2021/11/16 04:21:17;;;;;;;95.53;48.88;;;3.20;99.90;;;;;;2106214;28;20083;-71
2021/11/16 04:22:17;;;;;;;91.35;47.38;;;3.10;99.90;;;;;;2105979;28;20141;-72
2021/11/16 04:23:18;;;;;;;93.38;49.15;;;3.10;99.90;;;;;;2106291;28;20032;-70
2021/11/16 04:24:18;;;;;;;92.75;47.70;;;3.00;99.90;;;;;;2098143;28;20515;-73
2021/11/16 04:25:20;;;;;;;88.47;46.10;;;3.00;99.90;;;;;;2098081;28;20116;-70
2021/11/16 04:26:22;;;;;;;91.93;47.17;;;3.00;99.90;;;;;;2106065;28;20036;-70
2021/11/16 04:27:23;;;;;;;94.93;49.20;;;3.00;99.90;;;;;;2106985;28;20024;-70
2021/11/16 04:28:24;;;;;;;91.60;47.00;;;2.90;99.90;;;;;;2103451;28;20031;-72
2021/11/16 04:29:25;;;;;;;87.72;46.38;;;2.90;99.90;;;;;;2097288;28;20035;-72
2021/11/16 04:30:28;;;;;;;90.28;46.97;;;2.90;99.90;;;;;;2097868;28;20541;-72
2021/11/16 04:31:28;;;;;;;90.85;46.60;;;2.90;99.90;;;;;;2097565;28;20407;-71
2021/11/16 04:32:29;;;;;;;90.90;46.08;;;2.90;99.90;;;;;;2097824;28;20040;-71
2021/11/16 04:33:31;;;;;;;87.35;45.85;;;2.90;99.90;;;;;;2097836;28;20106;-72
2021/11/16 04:34:31;;;;;;;85.45;44.60;;;2.90;99.90;;;;;;2097925;28;20063;-72
2021/11/16 04:35:33;;;;;;;86.57;45.47;;;3.00;99.90;;;;;;2097848;28;20033;-72
2021/11/16 04:36:34;;;;;;;93.20;47.33;;;3.00;99.90;;;;;;2097446;28;20025;-72
2021/11/16 04:37:38;;;;;;;93.75;47.70;;;3.00;99.90;;;;;;2097666;28;20431;-73
2021/11/16 04:38:38;;;;;;;88.72;46.00;;;3.00;99.90;;;;;;2097769;28;20020;-72
2021/11/16 04:39:39;;;;;;;90.50;45.80;;;3.00;99.90;;;;;;2097894;28;20028;-72
2021/11/16 04:40:42;;;;;;;88.55;46.53;;;3.10;99.90;;;;;;2097895;28;20094;-73
2021/11/16 04:41:44;;;;;;;84.90;43.38;;;3.10;99.90;;;;;;2097581;28;20028;-71
2021/11/16 04:42:46;;;;;;;82.47;43.30;;;3.10;99.90;;;;;;2097851;28;20653;-73
2021/11/16 04:43:46;;;;;;;80.20;42.70;;;3.10;99.90;;;;;;2098006;28;20751;-72
2021/11/16 04:44:48;;;;;;;78.28;42.30;;;3.20;99.90;;;;;;2098230;28;20024;-71
2021/11/16 04:45:55;;;;;;;83.22;42.13;;;3.20;99.90;;;;;;2097512;28;20071;-73
2021/11/16 04:46:56;;;;;;;86.55;46.13;;;3.20;99.90;;;;;;2089156;28;20025;-71
2021/11/16 04:48:17;;;;;;;83.30;43.97;;;3.20;99.90;;;;;;2089431;28;20029;-73
2021/11/16 04:49:40;;;;;;;;;;;3.30;99.90;;;;;;2097868;28;20024;-73
2021/11/16 04:51:07;;;;;;;88.80;44.15;;;3.30;99.90;;;;;;2098741;28;19908;-73
2021/11/16 04:53:53;;;;;;;88.60;44.83;;;3.30;99.90;;;;;;2099328;28;20067;-72
2021/11/16 05:02:34;;;;;;;84.35;41.78;;;3.40;99.90;;;;;;2100941;28;20066;-73
2021/11/16 05:02:40;;;;;;;;;;;3.50;99.90;;;;;;2097320;28;20024;-72
2021/11/16 05:03:41;;;;;;;83.18;42.70;;;3.60;99.90;;;;;;2097698;28;19915;-72
2021/11/16 05:04:42;;;;;;;89.35;45.42;;;3.60;99.90;;;;;;2097527;28;20035;-71
2021/11/16 05:05:42;;;;;;;108.03;60.47;;;3.60;99.90;;;;;;2097034;28;20501;-72
2021/11/16 05:06:44;;;;;;;92.13;50.03;;;3.60;99.90;;;;;;2097333;28;20108;-72
2021/11/16 05:07:52;;;;;;;94.25;50.50;;;3.70;99.90;;;;;;2097068;28;20088;-72
2021/11/16 05:08:54;;;;;;;93.82;48.17;;;3.70;99.90;;;;;;2097026;28;20137;-73
2021/11/16 05:09:57;;;;;;;90.03;47.63;;;3.80;99.90;;;;;;2097288;28;20020;-73
2021/11/16 05:10:58;;;;;;;85.30;44.75;;;3.80;99.90;;;;;;2097117;28;20156;-72
2021/11/16 05:11:58;;;;;;;81.55;44.35;;;3.80;99.90;;;;;;2088598;28;20041;-73
2021/11/16 05:13:00;;;;;;;82.53;43.58;;;3.80;99.90;;;;;;2097276;28;20016;-73
2021/11/16 05:14:01;;;;;;;78.35;42.63;;;3.90;99.90;;;;;;2097809;28;20032;-73
2021/11/16 05:15:06;;;;;;;78.55;41.95;;;3.90;99.90;;;;;;2097022;28;20029;-72
2021/11/16 05:16:07;;;;;;;79.70;42.75;;;3.90;99.90;;;;;;2096429;28;20082;-71
2021/11/16 05:17:08;;;;;;;81.38;41.95;;;4.00;99.90;;;;;;2097780;28;20040;-71
2021/11/16 05:18:08;;;;;;;80.22;41.85;;;4.10;99.90;;;;;;2097637;28;20033;-71
2021/11/16 05:19:09;;;;;;;76.10;40.17;;;4.10;99.90;;;;;;2097452;28;20086;-70
2021/11/16 05:20:10;;;;;;;73.38;39.45;;;4.10;99.90;;;;;;2098011;28;20159;-72
2021/11/16 05:21:12;;;;;;;72.85;39.47;;;4.20;99.90;;;;;;2097389;28;20128;-71
2021/11/16 05:22:13;;;;;;;73.43;40.55;;;4.20;99.90;;;;;;2097525;28;20046;-72
2021/11/16 05:23:15;;;;;;;75.90;40.75;;;4.30;99.90;;;;;;2097649;28;20127;-71
2021/11/16 05:24:16;;;;;;;84.85;45.40;;;4.30;99.90;;;;;;2097000;28;20058;-72
2021/11/16 05:25:17;;;;;;;98.22;50.75;;;4.40;99.90;;;;;;2097111;28;20495;-71